createdAt,value
2019-05-18T00:05:46.114Z,146.33
2019-05-18T00:08:19.714Z,533.37
2019-05-18T00:10:53.318Z,526.67
2019-05-18T00:13:26.990Z,321.73
2019-05-18T00:16:00.655Z,149.37
2019-05-18T00:22:20.346Z,104.90
2019-05-18T00:24:53.990Z,404.87
2019-05-18T00:27:27.600Z,237.67
2019-05-18T00:30:01.338Z,373.43
2019-05-18T00:32:34.993Z,177.73
2019-05-18T00:35:09.334Z,260.70
2019-05-18T00:37:42.937Z,136.07
2019-05-18T00:40:16.644Z,144.10
2019-05-18T00:42:50.242Z,171.33
2019-05-18T00:45:23.903Z,280.30
2019-05-18T00:47:59.472Z,269.10
2019-05-18T00:50:32.892Z,222.80
2019-05-18T00:53:06.542Z,71.10
2019-05-18T00:55:40.272Z,225.50
2019-05-18T00:58:14.006Z,120.20
2019-05-18T01:00:47.664Z,152.33
2019-05-18T01:03:21.268Z,76.53
2019-05-18T01:05:54.890Z,333.73
2019-05-18T01:08:28.611Z,84.77
2019-05-18T01:11:02.237Z,81.13
2019-05-18T01:13:35.798Z,84.80
2019-05-18T01:16:09.392Z,253.03
2019-05-18T01:18:43.274Z,212.27
2019-05-18T01:21:16.867Z,192.07
2019-05-18T01:23:50.594Z,257.03
2019-05-18T01:26:24.262Z,244.17
2019-05-18T01:29:04.099Z,289.27
2019-05-18T01:31:37.860Z,254.00
2019-05-18T01:34:11.563Z,143.33
2019-05-18T01:36:45.292Z,138.03
2019-05-18T01:39:18.952Z,161.70
2019-05-18T01:41:52.538Z,254.40
2019-05-18T01:44:26.184Z,210.33
2019-05-18T01:46:59.843Z,269.97
2019-05-18T01:49:33.538Z,84.03
2019-05-18T01:52:07.251Z,155.70
2019-05-18T01:54:41.110Z,151.43
2019-05-18T01:57:14.734Z,148.43
2019-05-18T01:59:48.378Z,146.87
2019-05-18T02:06:08.459Z,189.67
2019-05-18T02:08:42.097Z,125.83
2019-05-18T02:11:15.815Z,186.07
2019-05-18T02:13:49.444Z,106.97
2019-05-18T02:16:23.062Z,84.20
2019-05-18T02:22:33.623Z,193.93
2019-05-18T02:25:07.663Z,215.10
2019-05-18T02:27:41.302Z,91.40
2019-05-18T02:30:17.555Z,103.00
2019-05-18T02:32:50.305Z,155.77
2019-05-18T02:35:23.949Z,135.60
2019-05-18T02:37:59.173Z,76.73
2019-05-18T02:40:32.770Z,100.53
2019-05-18T02:43:06.403Z,109.87
2019-05-18T02:45:40.136Z,99.10
2019-05-18T02:48:13.843Z,111.50
2019-05-18T02:50:47.505Z,146.43
2019-05-18T02:53:21.283Z,89.63
2019-05-18T02:55:54.868Z,136.00
2019-05-18T02:58:28.533Z,147.80
2019-05-18T03:01:02.170Z,167.87
2019-05-18T03:03:35.877Z,277.03
2019-05-18T03:06:09.689Z,252.53
2019-05-18T03:08:43.454Z,194.20
2019-05-18T03:11:17.077Z,251.67
2019-05-18T03:13:50.789Z,233.40
2019-05-18T03:16:24.421Z,305.17
2019-05-18T03:19:08.428Z,131.00
2019-05-18T03:21:34.481Z,124.40
2019-05-18T03:24:08.206Z,73.93
2019-05-18T03:26:41.860Z,73.67
2019-05-18T03:29:15.581Z,166.67
2019-05-18T03:31:55.402Z,86.63
2019-05-18T03:34:29.010Z,125.53
2019-05-18T03:37:02.794Z,79.10
2019-05-18T03:39:36.513Z,74.40
2019-05-18T03:42:10.145Z,126.80
2019-05-18T03:44:43.837Z,198.23
2019-05-18T03:47:17.492Z,193.77
2019-05-18T03:49:51.429Z,127.80
2019-05-18T03:52:25.167Z,335.30
2019-05-18T03:54:58.820Z,261.67
2019-05-18T03:57:32.472Z,149.20
2019-05-18T04:00:08.311Z,127.80
2019-05-18T04:06:19.226Z,125.07
2019-05-18T04:08:52.928Z,107.30
2019-05-18T04:11:26.641Z,144.53
2019-05-18T04:14:00.263Z,121.10
2019-05-18T04:16:37.639Z,136.00
2019-05-18T04:22:57.325Z,97.93
2019-05-18T04:25:30.949Z,236.93
2019-05-18T04:28:04.645Z,199.33
2019-05-18T04:30:38.326Z,204.97
2019-05-18T04:33:11.954Z,154.10
2019-05-18T04:35:45.628Z,165.40
2019-05-18T04:38:19.333Z,94.63
2019-05-18T04:40:52.926Z,147.10
2019-05-18T04:43:26.640Z,186.43
2019-05-18T04:46:00.312Z,140.23
2019-05-18T04:48:33.911Z,37.43
2019-05-18T04:51:07.529Z,135.70
2019-05-18T04:53:41.174Z,162.00
2019-05-18T04:56:14.771Z,90.37
2019-05-18T04:58:48.510Z,186.83
2019-05-18T05:01:22.273Z,177.93
2019-05-18T05:03:55.906Z,149.00
2019-05-18T05:06:29.520Z,113.20
2019-05-18T05:09:04.822Z,108.80
2019-05-18T05:11:38.419Z,147.07
2019-05-18T05:14:12.117Z,83.23
2019-05-18T05:16:45.745Z,145.73
2019-05-18T05:19:19.357Z,154.30
2019-05-18T05:21:52.963Z,81.97
2019-05-18T05:24:26.573Z,94.30
2019-05-18T05:27:00.192Z,256.97
2019-05-18T05:29:33.761Z,297.27
2019-05-18T05:32:07.403Z,311.43
2019-05-18T05:34:41.001Z,385.67
2019-05-18T05:37:14.717Z,230.23
2019-05-18T05:39:48.320Z,485.47
2019-05-18T05:42:21.997Z,216.43
2019-05-18T05:44:55.632Z,345.03
2019-05-18T05:47:29.252Z,245.63
2019-05-18T05:50:02.965Z,215.90
2019-05-18T05:52:36.632Z,185.93
2019-05-18T05:55:11.038Z,391.27
2019-05-18T05:57:44.622Z,283.90
2019-05-18T06:00:18.834Z,237.47
2019-05-18T06:02:52.473Z,258.07
2019-05-18T06:05:26.242Z,183.87
2019-05-18T06:07:59.901Z,137.93
2019-05-18T06:10:33.524Z,101.30
2019-05-18T06:13:07.658Z,86.13
2019-05-18T06:15:41.289Z,64.43
2019-05-18T06:22:01.211Z,61.67
2019-05-18T06:24:34.910Z,39.93
2019-05-18T06:27:08.497Z,36.47
2019-05-18T06:29:42.130Z,36.80
2019-05-18T06:32:15.809Z,35.23
2019-05-18T06:38:26.963Z,28.15
2019-05-18T06:41:00.528Z,24.98
2019-05-18T06:43:34.154Z,24.30
2019-05-18T06:46:07.744Z,22.48
2019-05-18T06:48:41.411Z,23.02
2019-05-18T06:51:15.046Z,20.32
2019-05-18T06:53:49.036Z,20.48
2019-05-18T06:56:23.124Z,20.32
2019-05-18T06:58:58.161Z,20.88
2019-05-18T07:01:31.802Z,21.80
2019-05-18T07:04:05.528Z,20.60
2019-05-18T07:06:39.426Z,22.55
2019-05-18T07:09:14.467Z,20.40
2019-05-18T07:11:48.322Z,22.58
2019-05-18T07:14:25.826Z,21.07
2019-05-18T07:16:57.254Z,24.20
2019-05-18T07:19:30.951Z,23.38
2019-05-18T07:22:05.651Z,22.00
2019-05-18T07:24:39.289Z,28.57
2019-05-18T07:27:12.896Z,24.23
2019-05-18T07:29:46.580Z,24.77
2019-05-18T07:32:20.205Z,27.30
2019-05-18T07:34:53.836Z,26.10
2019-05-18T07:37:27.567Z,25.70
2019-05-18T07:40:01.200Z,25.08
2019-05-18T07:42:34.807Z,26.90
2019-05-18T07:45:09.209Z,23.60
2019-05-18T07:47:42.956Z,27.90
2019-05-18T07:50:16.809Z,29.73
2019-05-18T07:52:50.522Z,28.67
2019-05-18T07:55:24.204Z,28.30
2019-05-18T07:57:57.909Z,28.93
2019-05-18T08:00:31.673Z,34.00
2019-05-18T08:03:05.429Z,32.80
2019-05-18T08:05:39.022Z,34.57
2019-05-18T08:08:12.661Z,29.13
2019-05-18T08:10:46.272Z,30.90
2019-05-18T08:13:19.907Z,30.90
2019-05-18T08:15:53.584Z,30.67
2019-05-18T08:22:04.696Z,30.00
2019-05-18T08:24:38.388Z,26.50
2019-05-18T08:27:12.064Z,28.83
2019-05-18T08:29:45.998Z,27.40
2019-05-18T08:32:19.584Z,29.13
2019-05-18T08:38:30.140Z,28.27
2019-05-18T08:41:03.747Z,27.80
2019-05-18T08:43:37.472Z,29.37
2019-05-18T08:46:11.062Z,28.63
2019-05-18T08:48:44.692Z,30.77
2019-05-18T08:51:18.355Z,32.43
2019-05-18T08:53:52.027Z,29.53
2019-05-18T08:56:25.662Z,32.90
2019-05-18T08:58:59.389Z,34.77
2019-05-18T09:01:33.063Z,33.50
2019-05-18T09:04:06.775Z,35.67
2019-05-18T09:06:40.383Z,35.43
2019-05-18T09:09:14.023Z,35.37
2019-05-18T09:11:47.629Z,36.53
2019-05-18T09:14:21.337Z,33.53
2019-05-18T09:16:54.926Z,31.50
2019-05-18T09:19:28.578Z,33.80
2019-05-18T09:22:02.242Z,31.37
2019-05-18T09:24:36.004Z,32.73
2019-05-18T09:27:09.684Z,32.00
2019-05-18T09:29:43.352Z,34.57
2019-05-18T09:32:17.038Z,33.97
2019-05-18T09:34:50.728Z,35.13
2019-05-18T09:37:24.316Z,33.73
2019-05-18T09:39:58.046Z,32.57
2019-05-18T09:42:31.709Z,32.43
2019-05-18T09:45:07.099Z,31.07
2019-05-18T09:47:41.146Z,35.50
2019-05-18T09:50:15.197Z,33.40
2019-05-18T09:52:48.792Z,32.87
2019-05-18T09:55:22.634Z,36.73
2019-05-18T09:57:56.272Z,33.83
2019-05-18T10:00:38.004Z,33.13
2019-05-18T10:03:05.371Z,41.50
2019-05-18T10:05:39.022Z,34.87
2019-05-18T10:08:12.616Z,34.90
2019-05-18T10:10:46.609Z,32.97
2019-05-18T10:13:20.286Z,26.73
2019-05-18T10:15:53.884Z,27.73
2019-05-18T10:18:27.467Z,32.00
2019-05-18T10:21:01.217Z,27.10
2019-05-18T10:23:34.820Z,23.27
2019-05-18T10:26:08.464Z,24.17
2019-05-18T10:29:01.393Z,22.67
2019-05-18T10:31:35.414Z,25.27
2019-05-18T10:34:09.051Z,19.40
2019-05-18T10:36:43.811Z,24.50
2019-05-18T10:39:17.699Z,20.53
2019-05-18T10:41:51.500Z,16.80
2019-05-18T10:44:25.245Z,13.50
2019-05-18T10:46:58.844Z,14.67
2019-05-18T10:49:32.500Z,12.57
2019-05-18T10:52:06.220Z,11.70
2019-05-18T10:54:39.926Z,12.70
2019-05-18T10:57:13.572Z,10.60
2019-05-18T10:59:47.334Z,15.97
2019-05-18T11:02:20.980Z,15.90
2019-05-18T11:04:54.640Z,6.97
2019-05-18T11:07:29.077Z,5.90
2019-05-18T11:10:03.080Z,6.13
2019-05-18T11:12:36.756Z,4.97
2019-05-18T11:15:12.439Z,8.67
2019-05-18T11:17:46.106Z,3.00
2019-05-18T11:20:20.178Z,5.27
2019-05-18T11:22:53.830Z,5.47
2019-05-18T11:25:34.703Z,6.00
2019-05-18T11:28:08.442Z,3.30
2019-05-18T11:30:42.073Z,2.57
2019-05-18T11:33:15.740Z,3.47
2019-05-18T11:35:49.344Z,2.93
2019-05-18T11:38:23.364Z,1.60
2019-05-18T11:40:56.966Z,1.73
2019-05-18T11:43:31.548Z,0.97
2019-05-18T11:46:05.325Z,2.17
2019-05-18T11:48:38.972Z,1.50
2019-05-18T11:51:12.683Z,1.23
2019-05-18T11:53:57.501Z,1.40
2019-05-18T11:56:21.635Z,3.33
2019-05-18T11:58:55.224Z,1.87
2019-05-18T12:01:28.842Z,3.03
2019-05-18T12:04:02.502Z,2.70
2019-05-18T12:06:36.113Z,1.80
2019-05-18T12:09:09.706Z,1.77
2019-05-18T12:11:43.296Z,2.10
2019-05-18T12:14:17.072Z,5.47
2019-05-18T12:16:50.760Z,2.27
2019-05-18T12:19:24.349Z,2.63
2019-05-18T12:21:57.999Z,3.23
2019-05-18T12:24:31.603Z,3.50
2019-05-18T12:27:05.367Z,3.20
2019-05-18T12:29:39.119Z,2.87
2019-05-18T12:32:12.749Z,2.57
2019-05-18T12:34:46.346Z,4.43
2019-05-18T12:37:23.384Z,2.37
2019-05-18T12:39:57.043Z,2.20
2019-05-18T12:42:30.670Z,3.40
2019-05-18T12:45:05.055Z,3.80
2019-05-18T12:47:38.694Z,4.43
2019-05-18T12:50:12.865Z,4.03
2019-05-18T12:52:46.681Z,4.67
2019-05-18T12:55:20.900Z,5.20
2019-05-18T12:57:54.727Z,4.37
2019-05-18T13:00:28.916Z,6.67
2019-05-18T13:03:03.537Z,6.93
2019-05-18T13:05:37.197Z,8.43
2019-05-18T13:08:10.825Z,9.97
2019-05-18T13:10:44.574Z,13.33
2019-05-18T13:13:18.159Z,10.60
2019-05-18T13:15:51.808Z,9.20
2019-05-18T13:18:25.567Z,10.07
2019-05-18T13:20:59.283Z,11.37
2019-05-18T13:23:32.995Z,12.03
2019-05-18T13:26:06.768Z,13.43
2019-05-18T13:28:40.400Z,12.20
2019-05-18T13:31:14.111Z,17.23
2019-05-18T13:33:47.845Z,18.00
2019-05-18T13:36:21.443Z,33.33
2019-05-18T13:38:55.052Z,21.17
2019-05-18T13:41:28.856Z,19.73
2019-05-18T13:44:02.465Z,20.87
2019-05-18T13:46:36.090Z,16.50
2019-05-18T13:49:09.710Z,16.77
2019-05-18T13:51:43.490Z,36.20
2019-05-18T13:54:17.161Z,30.23
2019-05-18T13:56:50.751Z,29.17
2019-05-18T13:59:24.566Z,60.07
2019-05-18T14:01:58.836Z,108.83
2019-05-18T14:04:32.574Z,38.50
2019-05-18T14:07:06.393Z,30.30
2019-05-18T14:09:40.071Z,54.63
2019-05-18T14:12:13.863Z,132.83
2019-05-18T14:14:48.056Z,51.80
2019-05-18T14:17:21.720Z,38.07
2019-05-18T14:19:55.567Z,32.27
2019-05-18T14:22:29.173Z,71.20
2019-05-18T14:25:10.572Z,40.93
2019-05-18T14:27:38.132Z,36.37
2019-05-18T14:30:12.472Z,31.77
2019-05-18T14:32:46.254Z,29.07
2019-05-18T14:35:20.027Z,27.63
2019-05-18T14:37:54.025Z,24.43
2019-05-18T14:40:27.754Z,25.57
2019-05-18T14:43:01.391Z,22.50
2019-05-18T14:45:35.061Z,17.63
2019-05-18T14:48:10.482Z,21.93
2019-05-18T14:50:44.716Z,18.07
2019-05-18T14:53:18.370Z,21.47
2019-05-18T14:55:52.171Z,18.63
2019-05-18T14:58:25.893Z,16.10
2019-05-18T15:00:59.498Z,12.67
2019-05-18T15:03:33.128Z,11.67
2019-05-18T15:06:06.879Z,12.77
2019-05-18T15:08:40.480Z,11.10
2019-05-18T15:11:14.097Z,11.07
2019-05-18T15:13:47.708Z,11.70
2019-05-18T15:16:21.413Z,8.17
2019-05-18T15:18:57.695Z,10.63
2019-05-18T15:21:31.420Z,10.37
2019-05-18T15:24:08.538Z,10.10
2019-05-18T15:26:40.305Z,11.13
2019-05-18T15:29:14.040Z,11.17
2019-05-18T15:31:47.716Z,11.17
2019-05-18T15:34:21.355Z,12.23
2019-05-18T15:36:55.083Z,12.00
2019-05-18T15:39:28.759Z,9.70
2019-05-18T15:42:02.448Z,10.87
2019-05-18T15:44:36.187Z,9.63
2019-05-18T15:47:09.892Z,10.27
2019-05-18T15:49:43.501Z,9.70
2019-05-18T15:52:17.199Z,11.07
2019-05-18T15:54:50.871Z,11.87
2019-05-18T15:57:24.563Z,13.23
2019-05-18T15:59:58.163Z,12.87
2019-05-18T16:02:31.753Z,14.20
2019-05-18T16:05:05.874Z,14.20
2019-05-18T16:07:39.705Z,13.00
2019-05-18T16:10:14.317Z,14.10
2019-05-18T16:12:48.223Z,15.37
2019-05-18T16:15:22.081Z,15.93
2019-05-18T16:17:55.807Z,13.87
2019-05-18T16:20:29.542Z,13.10
2019-05-18T16:23:03.538Z,14.17
2019-05-18T16:25:37.227Z,12.53
2019-05-18T16:28:10.887Z,14.83
2019-05-18T16:30:44.559Z,13.07
2019-05-18T16:33:18.321Z,12.83
2019-05-18T16:35:51.989Z,15.90
2019-05-18T16:38:25.674Z,14.67
2019-05-18T16:40:59.360Z,14.30
2019-05-18T16:43:33.737Z,13.57
2019-05-18T16:46:07.415Z,14.07
2019-05-18T16:48:41.060Z,15.77
2019-05-18T16:51:14.689Z,15.90
2019-05-18T16:53:50.309Z,13.13
2019-05-18T16:56:34.622Z,14.30
2019-05-18T16:58:59.036Z,15.27
2019-05-18T17:01:32.750Z,15.60
2019-05-18T17:04:06.393Z,14.93
2019-05-18T17:06:40.043Z,15.57
2019-05-18T17:09:13.638Z,15.30
2019-05-18T17:11:48.096Z,15.30
2019-05-18T17:14:22.026Z,14.10
2019-05-18T17:16:55.639Z,15.53
2019-05-18T17:19:29.710Z,14.00
2019-05-18T17:22:03.483Z,15.07
2019-05-18T17:24:37.079Z,16.93
2019-05-18T17:27:10.993Z,15.27
2019-05-18T17:29:44.657Z,16.07
2019-05-18T17:32:18.436Z,15.50
2019-05-18T17:34:52.041Z,18.17
2019-05-18T17:37:25.642Z,16.83
2019-05-18T17:39:59.296Z,17.60
2019-05-18T17:42:32.951Z,16.07
2019-05-18T17:45:07.801Z,15.30
2019-05-18T17:47:41.900Z,17.50
2019-05-18T17:50:15.728Z,15.27
2019-05-18T17:52:49.462Z,20.77
2019-05-18T17:55:23.226Z,22.00
2019-05-18T17:57:56.964Z,23.03
2019-05-18T18:00:30.693Z,22.03
2019-05-18T18:03:04.420Z,26.87
2019-05-18T18:05:38.010Z,26.43
2019-05-18T18:08:11.712Z,27.60
2019-05-18T18:10:45.300Z,27.90
2019-05-18T18:13:18.951Z,28.27
2019-05-18T18:15:52.555Z,30.33
2019-05-18T18:18:26.226Z,30.00
2019-05-18T18:20:59.864Z,31.20
2019-05-18T18:23:33.486Z,30.50
2019-05-18T18:26:07.137Z,30.83
2019-05-18T18:28:40.849Z,30.17
2019-05-18T18:31:14.447Z,25.17
2019-05-18T18:33:48.236Z,30.33
2019-05-18T18:36:21.838Z,32.27
2019-05-18T18:38:55.481Z,33.13
2019-05-18T18:41:29.238Z,31.07
2019-05-18T18:44:03.968Z,32.97
2019-05-18T18:46:38.033Z,30.40
2019-05-18T18:49:12.035Z,36.43
2019-05-18T18:51:45.640Z,35.13
2019-05-18T18:54:19.351Z,33.80
2019-05-18T18:56:52.968Z,37.10
2019-05-18T18:59:26.586Z,35.40
2019-05-18T19:02:00.319Z,40.17
2019-05-18T19:04:34.098Z,41.43
2019-05-18T19:07:09.227Z,39.93
2019-05-18T19:09:43.010Z,43.43
2019-05-18T19:12:16.608Z,50.73
2019-05-18T19:14:50.256Z,47.30
2019-05-18T19:17:23.852Z,45.60
2019-05-18T19:19:57.561Z,43.80
2019-05-18T19:22:31.166Z,56.73
2019-05-18T19:25:05.523Z,66.97
2019-05-18T19:27:39.142Z,57.90
2019-05-18T19:30:12.947Z,136.50
2019-05-18T19:32:46.654Z,159.20
2019-05-18T19:35:20.273Z,109.23
2019-05-18T19:37:53.931Z,52.00
2019-05-18T19:40:27.589Z,215.47
2019-05-18T19:43:01.282Z,183.93
2019-05-18T19:45:34.878Z,92.10
2019-05-18T19:48:08.522Z,241.23
2019-05-18T19:50:42.496Z,73.97
2019-05-18T19:53:16.212Z,115.17
2019-05-18T19:55:49.802Z,70.43
2019-05-18T19:58:23.460Z,71.10
2019-05-18T20:00:57.044Z,77.47
2019-05-18T20:03:30.706Z,71.83
2019-05-18T20:06:04.711Z,68.03
2019-05-18T20:08:38.597Z,64.40
2019-05-18T20:11:12.181Z,63.23
2019-05-18T20:13:45.848Z,69.40
2019-05-18T20:16:19.523Z,58.30
2019-05-18T20:18:53.485Z,67.10
2019-05-18T20:21:27.550Z,60.07
2019-05-18T20:24:01.170Z,79.00
2019-05-18T20:26:34.981Z,78.83
2019-05-18T20:29:08.676Z,72.87
2019-05-18T20:31:42.314Z,66.37
2019-05-18T20:34:15.876Z,90.43
2019-05-18T20:36:49.583Z,79.63
2019-05-18T20:39:23.214Z,86.50
2019-05-18T20:41:56.894Z,76.53
2019-05-18T20:44:30.564Z,76.57
2019-05-18T20:47:04.215Z,80.17
2019-05-18T20:49:38.310Z,71.57
2019-05-18T20:52:11.921Z,69.07
2019-05-18T20:54:45.717Z,72.57
2019-05-18T20:57:19.362Z,70.80
2019-05-18T20:59:53.062Z,62.23
2019-05-18T21:02:26.730Z,59.27
2019-05-18T21:05:00.944Z,60.57
2019-05-18T21:07:34.605Z,57.03
2019-05-18T21:10:08.975Z,61.73
2019-05-18T21:12:42.624Z,64.63
2019-05-18T21:15:16.835Z,62.83
2019-05-18T21:17:50.495Z,60.80
2019-05-18T21:20:24.370Z,51.17
2019-05-18T21:22:59.488Z,44.70
2019-05-18T21:25:33.824Z,47.63
2019-05-18T21:28:07.491Z,39.57
2019-05-18T21:30:44.094Z,41.87
2019-05-18T21:33:17.758Z,40.83
2019-05-18T21:35:51.397Z,42.27
2019-05-18T21:38:25.323Z,42.93
2019-05-18T21:40:58.998Z,50.67
2019-05-18T21:43:32.576Z,45.73
2019-05-18T21:46:06.246Z,50.57
2019-05-18T21:48:40.283Z,50.57
2019-05-18T21:51:14.002Z,51.13
2019-05-18T21:53:47.744Z,55.07
2019-05-18T21:56:21.488Z,49.77
2019-05-18T21:59:10.154Z,54.97
2019-05-18T22:01:30.720Z,42.13
2019-05-18T22:04:04.665Z,49.53
2019-05-18T22:06:38.376Z,53.97
2019-05-18T22:09:12.132Z,51.33
2019-05-18T22:11:45.808Z,51.67
2019-05-18T22:14:19.407Z,49.70
2019-05-18T22:16:53.394Z,52.57
2019-05-18T22:19:27.086Z,52.73
2019-05-18T22:22:00.773Z,54.40
2019-05-18T22:24:34.505Z,48.00
2019-05-18T22:27:08.213Z,49.37
2019-05-18T22:29:42.103Z,52.80
2019-05-18T22:32:15.810Z,57.57
2019-05-18T22:34:49.391Z,63.20
2019-05-18T22:37:23.036Z,63.97
2019-05-18T22:39:56.775Z,62.30
2019-05-18T22:42:30.629Z,62.53
2019-05-18T22:45:05.009Z,44.67
2019-05-18T22:47:38.678Z,50.87
2019-05-18T22:50:12.702Z,54.23
2019-05-18T22:52:49.022Z,59.53
2019-05-18T22:55:22.724Z,57.20
2019-05-18T22:57:56.383Z,70.27
2019-05-18T23:00:30.052Z,74.37
2019-05-18T23:03:03.708Z,96.47
2019-05-18T23:05:37.307Z,80.23
2019-05-18T23:08:11.019Z,93.63
2019-05-18T23:10:44.685Z,86.40
2019-05-18T23:13:18.348Z,98.23
2019-05-18T23:15:51.989Z,95.60
2019-05-18T23:18:25.640Z,78.53
2019-05-18T23:20:59.180Z,67.93
2019-05-18T23:23:32.783Z,71.07
2019-05-18T23:26:06.487Z,72.17
2019-05-18T23:28:40.103Z,63.13
2019-05-18T23:31:13.811Z,68.00
2019-05-18T23:33:47.406Z,73.87
2019-05-18T23:36:21.056Z,64.20
2019-05-18T23:38:54.696Z,56.90
2019-05-18T23:41:28.363Z,55.07
2019-05-18T23:44:02.022Z,52.20
2019-05-18T23:46:35.700Z,42.33
2019-05-18T23:49:11.135Z,41.90
2019-05-18T23:51:44.538Z,39.53
2019-05-18T23:54:18.176Z,38.90
2019-05-18T23:56:52.147Z,41.20
2019-05-18T23:59:26.763Z,45.20
